sensor_id;sensor_type;location;lat;lon;timestamp;temperature;humidity
19829;DHT22;10075;50.924;4.396;2023-07-02T00:02:13;18.50;99.90
19829;DHT22;10075;50.924;4.396;2023-07-02T00:04:41;18.60;99.90
19829;DHT22;10075;50.924;4.396;2023-07-02T00:07:08;18.50;99.90
19829;DHT22;10075;50.924;4.396;2023-07-02T00:09:35;18.50;99.90
19829;DHT22;10075;50.924;4.396;2023-07-02T00:12:03;18.50;99.90
19829;DHT22;10075;50.924;4.396;2023-07-02T00:14:30;18.50;99.90
19829;DHT22;10075;50.924;4.396;2023-07-02T00:16:58;18.50;99.90
19829;DHT22;10075;50.924;4.396;2023-07-02T00:19:25;18.50;99.90
19829;DHT22;10075;50.924;4.396;2023-07-02T00:21:52;18.50;99.90
19829;DHT22;10075;50.924;4.396;2023-07-02T00:24:19;18.50;99.90
19829;DHT22;10075;50.924;4.396;2023-07-02T00:26:46;18.50;99.90
19829;DHT22;10075;50.924;4.396;2023-07-02T00:29:14;18.50;99.90
19829;DHT22;10075;50.924;4.396;2023-07-02T00:31:42;18.50;99.90
19829;DHT22;10075;50.924;4.396;2023-07-02T00:34:08;18.40;99.90
19829;DHT22;10075;50.924;4.396;2023-07-02T00:36:35;18.50;99.90
19829;DHT22;10075;50.924;4.396;2023-07-02T00:39:02;18.40;99.90
19829;DHT22;10075;50.924;4.396;2023-07-02T00:41:29;18.50;99.90
19829;DHT22;10075;50.924;4.396;2023-07-02T00:43:57;18.50;99.90
19829;DHT22;10075;50.924;4.396;2023-07-02T00:46:26;18.40;99.90
19829;DHT22;10075;50.924;4.396;2023-07-02T00:48:54;18.40;99.90
19829;DHT22;10075;50.924;4.396;2023-07-02T00:51:23;18.40;99.90
19829;DHT22;10075;50.924;4.396;2023-07-02T00:53:52;18.40;99.90
19829;DHT22;10075;50.924;4.396;2023-07-02T00:56:20;18.40;99.90
19829;DHT22;10075;50.924;4.396;2023-07-02T00:58:48;18.40;99.90
19829;DHT22;10075;50.924;4.396;2023-07-02T01:01:17;18.40;99.90
19829;DHT22;10075;50.924;4.396;2023-07-02T01:03:53;18.40;99.90
19829;DHT22;10075;50.924;4.396;2023-07-02T01:06:23;18.30;99.90
19829;DHT22;10075;50.924;4.396;2023-07-02T01:08:53;18.40;99.90
19829;DHT22;10075;50.924;4.396;2023-07-02T01:11:22;18.40;99.90
19829;DHT22;10075;50.924;4.396;2023-07-02T01:13:51;18.40;99.90
19829;DHT22;10075;50.924;4.396;2023-07-02T01:16:20;18.40;99.90
19829;DHT22;10075;50.924;4.396;2023-07-02T01:18:48;18.40;99.90
19829;DHT22;10075;50.924;4.396;2023-07-02T01:21:22;18.40;99.90
19829;DHT22;10075;50.924;4.396;2023-07-02T01:23:50;18.30;99.90
19829;DHT22;10075;50.924;4.396;2023-07-02T01:26:18;18.40;99.90
19829;DHT22;10075;50.924;4.396;2023-07-02T01:28:45;18.40;99.90
19829;DHT22;10075;50.924;4.396;2023-07-02T01:31:12;18.40;99.90
19829;DHT22;10075;50.924;4.396;2023-07-02T01:33:39;18.40;99.90
19829;DHT22;10075;50.924;4.396;2023-07-02T01:36:07;18.40;99.90
19829;DHT22;10075;50.924;4.396;2023-07-02T01:38:35;18.40;99.90
19829;DHT22;10075;50.924;4.396;2023-07-02T01:41:02;18.40;99.90
19829;DHT22;10075;50.924;4.396;2023-07-02T01:43:29;18.40;99.90
19829;DHT22;10075;50.924;4.396;2023-07-02T01:45:56;18.50;99.90
19829;DHT22;10075;50.924;4.396;2023-07-02T01:48:24;18.40;99.90
19829;DHT22;10075;50.924;4.396;2023-07-02T01:50:51;18.40;99.90
19829;DHT22;10075;50.924;4.396;2023-07-02T01:53:18;18.30;99.90
19829;DHT22;10075;50.924;4.396;2023-07-02T01:55:47;18.30;99.90
19829;DHT22;10075;50.924;4.396;2023-07-02T01:58:14;18.40;99.90
19829;DHT22;10075;50.924;4.396;2023-07-02T02:00:41;18.30;99.90
19829;DHT22;10075;50.924;4.396;2023-07-02T02:03:08;18.30;99.90
19829;DHT22;10075;50.924;4.396;2023-07-02T02:05:35;18.20;99.90
19829;DHT22;10075;50.924;4.396;2023-07-02T02:08:03;18.20;99.90
19829;DHT22;10075;50.924;4.396;2023-07-02T02:10:30;18.20;99.90
19829;DHT22;10075;50.924;4.396;2023-07-02T02:12:58;18.20;99.90
19829;DHT22;10075;50.924;4.396;2023-07-02T02:15:25;18.20;99.90
19829;DHT22;10075;50.924;4.396;2023-07-02T02:17:52;18.20;99.90
19829;DHT22;10075;50.924;4.396;2023-07-02T02:20:19;18.20;99.90
19829;DHT22;10075;50.924;4.396;2023-07-02T02:22:46;18.10;99.90
19829;DHT22;10075;50.924;4.396;2023-07-02T02:25:13;18.10;99.90
19829;DHT22;10075;50.924;4.396;2023-07-02T02:27:40;18.10;99.90
19829;DHT22;10075;50.924;4.396;2023-07-02T02:30:10;18.10;99.90
19829;DHT22;10075;50.924;4.396;2023-07-02T02:32:37;18.00;99.90
19829;DHT22;10075;50.924;4.396;2023-07-02T02:35:05;18.00;99.90
19829;DHT22;10075;50.924;4.396;2023-07-02T02:37:33;18.00;99.90
19829;DHT22;10075;50.924;4.396;2023-07-02T02:40:01;17.90;99.90
19829;DHT22;10075;50.924;4.396;2023-07-02T02:42:28;17.90;99.90
19829;DHT22;10075;50.924;4.396;2023-07-02T02:44:55;17.80;99.90
19829;DHT22;10075;50.924;4.396;2023-07-02T02:47:23;17.80;99.90
19829;DHT22;10075;50.924;4.396;2023-07-02T02:49:50;17.80;99.90
19829;DHT22;10075;50.924;4.396;2023-07-02T02:52:17;17.70;99.90
19829;DHT22;10075;50.924;4.396;2023-07-02T02:54:45;17.70;99.90
19829;DHT22;10075;50.924;4.396;2023-07-02T02:57:12;17.70;99.90
19829;DHT22;10075;50.924;4.396;2023-07-02T02:59:39;17.70;99.90
19829;DHT22;10075;50.924;4.396;2023-07-02T03:02:06;17.70;99.90
19829;DHT22;10075;50.924;4.396;2023-07-02T03:04:35;17.60;99.90
19829;DHT22;10075;50.924;4.396;2023-07-02T03:07:05;17.60;99.90
19829;DHT22;10075;50.924;4.396;2023-07-02T03:09:32;17.60;99.90
19829;DHT22;10075;50.924;4.396;2023-07-02T03:11:59;17.60;99.90
19829;DHT22;10075;50.924;4.396;2023-07-02T03:14:26;17.60;99.90
19829;DHT22;10075;50.924;4.396;2023-07-02T03:16:53;17.60;99.90
19829;DHT22;10075;50.924;4.396;2023-07-02T03:19:20;17.60;99.90
19829;DHT22;10075;50.924;4.396;2023-07-02T03:21:49;17.60;99.90
19829;DHT22;10075;50.924;4.396;2023-07-02T03:24:16;17.70;99.90
19829;DHT22;10075;50.924;4.396;2023-07-02T03:26:43;17.60;99.90
19829;DHT22;10075;50.924;4.396;2023-07-02T03:29:10;17.60;99.90
19829;DHT22;10075;50.924;4.396;2023-07-02T03:31:38;17.60;99.90
19829;DHT22;10075;50.924;4.396;2023-07-02T03:34:07;17.60;99.90
19829;DHT22;10075;50.924;4.396;2023-07-02T03:36:35;17.60;99.90
19829;DHT22;10075;50.924;4.396;2023-07-02T03:39:03;17.60;99.90
19829;DHT22;10075;50.924;4.396;2023-07-02T03:41:31;17.60;99.90
19829;DHT22;10075;50.924;4.396;2023-07-02T03:43:58;17.60;99.90
19829;DHT22;10075;50.924;4.396;2023-07-02T03:46:24;17.50;99.90
19829;DHT22;10075;50.924;4.396;2023-07-02T03:48:51;17.50;99.90
19829;DHT22;10075;50.924;4.396;2023-07-02T03:51:18;17.50;99.90
19829;DHT22;10075;50.924;4.396;2023-07-02T03:53:45;17.50;99.90
19829;DHT22;10075;50.924;4.396;2023-07-02T03:56:14;17.50;99.90
19829;DHT22;10075;50.924;4.396;2023-07-02T03:58:41;17.50;99.90
19829;DHT22;10075;50.924;4.396;2023-07-02T04:01:08;17.50;99.90
19829;DHT22;10075;50.924;4.396;2023-07-02T04:03:34;17.50;99.90
19829;DHT22;10075;50.924;4.396;2023-07-02T04:06:01;17.50;99.90
19829;DHT22;10075;50.924;4.396;2023-07-02T04:08:31;17.50;99.90
19829;DHT22;10075;50.924;4.396;2023-07-02T04:10:58;17.50;99.90
19829;DHT22;10075;50.924;4.396;2023-07-02T04:13:26;17.50;99.90
19829;DHT22;10075;50.924;4.396;2023-07-02T04:15:53;17.60;99.90
19829;DHT22;10075;50.924;4.396;2023-07-02T04:18:20;17.60;99.90
19829;DHT22;10075;50.924;4.396;2023-07-02T04:20:47;17.50;99.90
19829;DHT22;10075;50.924;4.396;2023-07-02T04:23:14;17.50;99.90
19829;DHT22;10075;50.924;4.396;2023-07-02T04:25:41;17.50;99.90
19829;DHT22;10075;50.924;4.396;2023-07-02T04:28:08;17.50;99.90
19829;DHT22;10075;50.924;4.396;2023-07-02T04:30:37;17.50;99.90
19829;DHT22;10075;50.924;4.396;2023-07-02T04:33:04;17.50;99.90
19829;DHT22;10075;50.924;4.396;2023-07-02T04:35:31;17.50;99.90
19829;DHT22;10075;50.924;4.396;2023-07-02T04:37:59;17.50;99.90
19829;DHT22;10075;50.924;4.396;2023-07-02T04:40:26;17.50;99.90
19829;DHT22;10075;50.924;4.396;2023-07-02T04:42:54;17.60;99.90
19829;DHT22;10075;50.924;4.396;2023-07-02T04:45:24;17.60;99.90
19829;DHT22;10075;50.924;4.396;2023-07-02T04:47:52;17.60;99.90
19829;DHT22;10075;50.924;4.396;2023-07-02T04:50:20;17.60;99.90
19829;DHT22;10075;50.924;4.396;2023-07-02T04:52:47;17.70;99.90
19829;DHT22;10075;50.924;4.396;2023-07-02T04:55:14;17.70;99.90
19829;DHT22;10075;50.924;4.396;2023-07-02T04:57:41;17.80;99.90
19829;DHT22;10075;50.924;4.396;2023-07-02T05:00:10;17.90;99.90
19829;DHT22;10075;50.924;4.396;2023-07-02T05:02:38;17.90;99.90
19829;DHT22;10075;50.924;4.396;2023-07-02T05:05:08;17.90;99.90
19829;DHT22;10075;50.924;4.396;2023-07-02T05:07:35;18.00;99.90
19829;DHT22;10075;50.924;4.396;2023-07-02T05:10:02;18.00;99.90
19829;DHT22;10075;50.924;4.396;2023-07-02T05:12:29;18.00;99.90
19829;DHT22;10075;50.924;4.396;2023-07-02T05:14:56;18.00;99.90
19829;DHT22;10075;50.924;4.396;2023-07-02T05:17:23;18.00;99.90
19829;DHT22;10075;50.924;4.396;2023-07-02T05:19:50;18.10;99.90
19829;DHT22;10075;50.924;4.396;2023-07-02T05:22:18;18.10;99.90
19829;DHT22;10075;50.924;4.396;2023-07-02T05:24:46;18.20;99.90
19829;DHT22;10075;50.924;4.396;2023-07-02T05:27:13;18.30;99.90
19829;DHT22;10075;50.924;4.396;2023-07-02T05:29:39;18.30;99.90
19829;DHT22;10075;50.924;4.396;2023-07-02T05:32:07;18.40;99.90
19829;DHT22;10075;50.924;4.396;2023-07-02T05:34:34;18.50;99.90
19829;DHT22;10075;50.924;4.396;2023-07-02T05:37:01;18.70;99.90
19829;DHT22;10075;50.924;4.396;2023-07-02T05:39:29;18.80;99.90
19829;DHT22;10075;50.924;4.396;2023-07-02T05:41:56;18.90;99.90
19829;DHT22;10075;50.924;4.396;2023-07-02T05:44:23;18.90;99.90
19829;DHT22;10075;50.924;4.396;2023-07-02T05:46:50;19.00;99.90
19829;DHT22;10075;50.924;4.396;2023-07-02T05:49:17;19.10;99.90
19829;DHT22;10075;50.924;4.396;2023-07-02T05:51:44;19.10;99.90
19829;DHT22;10075;50.924;4.396;2023-07-02T05:54:11;19.20;99.90
19829;DHT22;10075;50.924;4.396;2023-07-02T05:56:39;19.30;99.90
19829;DHT22;10075;50.924;4.396;2023-07-02T05:59:06;19.40;99.90
19829;DHT22;10075;50.924;4.396;2023-07-02T06:01:33;19.50;99.90
19829;DHT22;10075;50.924;4.396;2023-07-02T06:04:00;19.60;99.90
19829;DHT22;10075;50.924;4.396;2023-07-02T06:06:27;19.60;99.90
19829;DHT22;10075;50.924;4.396;2023-07-02T06:08:54;19.70;99.90
19829;DHT22;10075;50.924;4.396;2023-07-02T06:11:21;19.90;99.90
19829;DHT22;10075;50.924;4.396;2023-07-02T06:13:50;19.90;99.90
19829;DHT22;10075;50.924;4.396;2023-07-02T06:16:17;20.10;99.90
19829;DHT22;10075;50.924;4.396;2023-07-02T06:18:44;20.00;99.90
19829;DHT22;10075;50.924;4.396;2023-07-02T06:21:11;20.10;99.90
19829;DHT22;10075;50.924;4.396;2023-07-02T06:23:41;20.10;99.90
19829;DHT22;10075;50.924;4.396;2023-07-02T06:26:08;20.10;99.90
19829;DHT22;10075;50.924;4.396;2023-07-02T06:28:35;20.10;99.90
19829;DHT22;10075;50.924;4.396;2023-07-02T06:31:04;20.10;99.90
19829;DHT22;10075;50.924;4.396;2023-07-02T06:33:31;20.10;99.90
19829;DHT22;10075;50.924;4.396;2023-07-02T06:35:58;20.10;99.90
19829;DHT22;10075;50.924;4.396;2023-07-02T06:38:25;20.20;99.90
19829;DHT22;10075;50.924;4.396;2023-07-02T06:40:51;20.30;99.90
19829;DHT22;10075;50.924;4.396;2023-07-02T06:43:18;20.40;99.90
19829;DHT22;10075;50.924;4.396;2023-07-02T06:45:45;20.40;99.90
19829;DHT22;10075;50.924;4.396;2023-07-02T06:48:14;20.50;99.90
19829;DHT22;10075;50.924;4.396;2023-07-02T06:50:43;20.60;99.90
19829;DHT22;10075;50.924;4.396;2023-07-02T06:53:11;20.60;99.90
19829;DHT22;10075;50.924;4.396;2023-07-02T06:55:38;20.70;99.90
19829;DHT22;10075;50.924;4.396;2023-07-02T06:58:05;20.80;99.90
19829;DHT22;10075;50.924;4.396;2023-07-02T07:00:32;20.90;99.90
19829;DHT22;10075;50.924;4.396;2023-07-02T07:03:01;20.90;99.90
19829;DHT22;10075;50.924;4.396;2023-07-02T07:05:29;21.10;99.90
19829;DHT22;10075;50.924;4.396;2023-07-02T07:07:56;21.20;99.90
19829;DHT22;10075;50.924;4.396;2023-07-02T07:10:23;21.40;99.90
19829;DHT22;10075;50.924;4.396;2023-07-02T07:12:50;21.50;99.90
19829;DHT22;10075;50.924;4.396;2023-07-02T07:15:17;21.50;99.90
19829;DHT22;10075;50.924;4.396;2023-07-02T07:17:44;21.50;99.90
19829;DHT22;10075;50.924;4.396;2023-07-02T07:20:12;21.50;99.90
19829;DHT22;10075;50.924;4.396;2023-07-02T07:22:40;21.50;99.90
19829;DHT22;10075;50.924;4.396;2023-07-02T07:25:08;21.50;99.90
19829;DHT22;10075;50.924;4.396;2023-07-02T07:27:35;21.50;99.90
19829;DHT22;10075;50.924;4.396;2023-07-02T07:30:03;21.50;99.90
19829;DHT22;10075;50.924;4.396;2023-07-02T07:32:30;21.50;99.90
19829;DHT22;10075;50.924;4.396;2023-07-02T07:34:57;21.50;99.90
19829;DHT22;10075;50.924;4.396;2023-07-02T07:37:24;21.60;99.90
19829;DHT22;10075;50.924;4.396;2023-07-02T07:39:53;21.60;99.90
19829;DHT22;10075;50.924;4.396;2023-07-02T07:42:20;21.60;99.90
19829;DHT22;10075;50.924;4.396;2023-07-02T07:44:47;21.70;99.90
19829;DHT22;10075;50.924;4.396;2023-07-02T07:47:14;21.80;99.90
19829;DHT22;10075;50.924;4.396;2023-07-02T07:49:41;21.90;99.90
19829;DHT22;10075;50.924;4.396;2023-07-02T07:52:08;22.00;99.90
19829;DHT22;10075;50.924;4.396;2023-07-02T07:54:35;22.20;99.90
19829;DHT22;10075;50.924;4.396;2023-07-02T07:57:04;22.30;99.90
19829;DHT22;10075;50.924;4.396;2023-07-02T07:59:31;22.50;99.90
19829;DHT22;10075;50.924;4.396;2023-07-02T08:01:59;22.60;99.90
19829;DHT22;10075;50.924;4.396;2023-07-02T08:04:25;22.80;99.90
19829;DHT22;10075;50.924;4.396;2023-07-02T08:06:52;22.80;99.50
19829;DHT22;10075;50.924;4.396;2023-07-02T08:09:20;22.90;99.30
19829;DHT22;10075;50.924;4.396;2023-07-02T08:11:47;23.00;98.70
19829;DHT22;10075;50.924;4.396;2023-07-02T08:14:17;23.10;98.30
19829;DHT22;10075;50.924;4.396;2023-07-02T08:16:44;23.20;97.20
19829;DHT22;10075;50.924;4.396;2023-07-02T08:19:11;23.20;97.10
19829;DHT22;10075;50.924;4.396;2023-07-02T08:21:38;23.20;96.90
19829;DHT22;10075;50.924;4.396;2023-07-02T08:24:05;23.20;97.30
19829;DHT22;10075;50.924;4.396;2023-07-02T08:26:33;23.20;97.80
19829;DHT22;10075;50.924;4.396;2023-07-02T08:29:00;23.30;98.60
19829;DHT22;10075;50.924;4.396;2023-07-02T08:31:29;23.50;97.90
19829;DHT22;10075;50.924;4.396;2023-07-02T08:33:55;23.60;97.20
19829;DHT22;10075;50.924;4.396;2023-07-02T08:36:22;23.50;96.60
19829;DHT22;10075;50.924;4.396;2023-07-02T08:38:49;23.50;97.00
19829;DHT22;10075;50.924;4.396;2023-07-02T08:41:16;23.40;97.60
19829;DHT22;10075;50.924;4.396;2023-07-02T08:43:44;23.30;98.00
19829;DHT22;10075;50.924;4.396;2023-07-02T08:46:11;23.40;99.10
19829;DHT22;10075;50.924;4.396;2023-07-02T08:48:40;23.40;98.80
19829;DHT22;10075;50.924;4.396;2023-07-02T08:51:08;23.60;98.70
19829;DHT22;10075;50.924;4.396;2023-07-02T08:53:35;23.50;98.10
19829;DHT22;10075;50.924;4.396;2023-07-02T08:56:03;23.50;98.10
19829;DHT22;10075;50.924;4.396;2023-07-02T08:58:30;23.50;98.30
19829;DHT22;10075;50.924;4.396;2023-07-02T09:01:07;23.50;98.70
19829;DHT22;10075;50.924;4.396;2023-07-02T09:03:35;23.50;98.60
19829;DHT22;10075;50.924;4.396;2023-07-02T09:06:05;23.50;97.90
19829;DHT22;10075;50.924;4.396;2023-07-02T09:08:32;23.40;97.50
19829;DHT22;10075;50.924;4.396;2023-07-02T09:11:07;23.20;97.50
19829;DHT22;10075;50.924;4.396;2023-07-02T09:13:48;23.00;97.30
19829;DHT22;10075;50.924;4.396;2023-07-02T09:16:25;22.80;97.80
19829;DHT22;10075;50.924;4.396;2023-07-02T09:19:00;22.70;98.00
19829;DHT22;10075;50.924;4.396;2023-07-02T09:21:38;22.60;97.90
19829;DHT22;10075;50.924;4.396;2023-07-02T09:24:15;22.50;98.50
19829;DHT22;10075;50.924;4.396;2023-07-02T09:26:43;22.50;99.50
19829;DHT22;10075;50.924;4.396;2023-07-02T09:29:11;22.60;99.90
19829;DHT22;10075;50.924;4.396;2023-07-02T09:31:45;22.70;99.40
19829;DHT22;10075;50.924;4.396;2023-07-02T09:34:13;22.80;99.40
19829;DHT22;10075;50.924;4.396;2023-07-02T09:36:42;23.00;99.20
19829;DHT22;10075;50.924;4.396;2023-07-02T09:39:12;23.40;99.20
19829;DHT22;10075;50.924;4.396;2023-07-02T09:41:41;23.80;97.30
19829;DHT22;10075;50.924;4.396;2023-07-02T09:44:09;24.00;97.70
19829;DHT22;10075;50.924;4.396;2023-07-02T09:46:40;24.00;96.90
19829;DHT22;10075;50.924;4.396;2023-07-02T09:49:11;24.00;96.30
19829;DHT22;10075;50.924;4.396;2023-07-02T09:51:38;23.80;96.10
19829;DHT22;10075;50.924;4.396;2023-07-02T09:54:07;23.70;96.20
19829;DHT22;10075;50.924;4.396;2023-07-02T09:56:34;23.50;96.10
19829;DHT22;10075;50.924;4.396;2023-07-02T09:59:01;23.30;96.30
19829;DHT22;10075;50.924;4.396;2023-07-02T10:01:28;23.20;96.50
19829;DHT22;10075;50.924;4.396;2023-07-02T10:03:55;23.10;96.80
19829;DHT22;10075;50.924;4.396;2023-07-02T10:06:22;23.10;97.30
19829;DHT22;10075;50.924;4.396;2023-07-02T10:08:53;23.10;96.90
19829;DHT22;10075;50.924;4.396;2023-07-02T10:11:33;23.10;97.00
19829;DHT22;10075;50.924;4.396;2023-07-02T10:14:00;23.10;97.60
19829;DHT22;10075;50.924;4.396;2023-07-02T10:16:27;23.20;98.00
19829;DHT22;10075;50.924;4.396;2023-07-02T10:19:08;23.60;98.10
19829;DHT22;10075;50.924;4.396;2023-07-02T10:21:35;24.10;95.70
19829;DHT22;10075;50.924;4.396;2023-07-02T10:24:10;24.10;94.80
19829;DHT22;10075;50.924;4.396;2023-07-02T10:26:38;24.10;94.00
19829;DHT22;10075;50.924;4.396;2023-07-02T10:29:06;23.80;94.50
19829;DHT22;10075;50.924;4.396;2023-07-02T10:31:33;23.70;94.30
19829;DHT22;10075;50.924;4.396;2023-07-02T10:34:00;23.80;94.30
19829;DHT22;10075;50.924;4.396;2023-07-02T10:36:27;23.80;94.80
19829;DHT22;10075;50.924;4.396;2023-07-02T10:39:01;23.90;94.70
19829;DHT22;10075;50.924;4.396;2023-07-02T10:41:30;24.00;94.30
19829;DHT22;10075;50.924;4.396;2023-07-02T10:44:07;24.10;94.50
19829;DHT22;10075;50.924;4.396;2023-07-02T10:46:34;24.40;93.80
19829;DHT22;10075;50.924;4.396;2023-07-02T10:49:01;24.50;93.30
19829;DHT22;10075;50.924;4.396;2023-07-02T10:51:28;24.40;93.30
19829;DHT22;10075;50.924;4.396;2023-07-02T10:53:59;24.10;92.70
19829;DHT22;10075;50.924;4.396;2023-07-02T10:56:26;23.80;93.50
19829;DHT22;10075;50.924;4.396;2023-07-02T10:58:54;23.60;94.40
19829;DHT22;10075;50.924;4.396;2023-07-02T11:01:26;23.50;94.40
19829;DHT22;10075;50.924;4.396;2023-07-02T11:03:58;23.70;93.30
19829;DHT22;10075;50.924;4.396;2023-07-02T11:06:25;23.80;93.10
19829;DHT22;10075;50.924;4.396;2023-07-02T11:08:52;23.90;92.90
19829;DHT22;10075;50.924;4.396;2023-07-02T11:11:20;24.00;93.00
19829;DHT22;10075;50.924;4.396;2023-07-02T11:13:48;24.10;94.10
19829;DHT22;10075;50.924;4.396;2023-07-02T11:16:25;24.30;93.30
19829;DHT22;10075;50.924;4.396;2023-07-02T11:18:54;24.40;93.00
19829;DHT22;10075;50.924;4.396;2023-07-02T11:21:21;24.40;93.00
19829;DHT22;10075;50.924;4.396;2023-07-02T11:23:48;24.30;94.00
19829;DHT22;10075;50.924;4.396;2023-07-02T11:26:15;24.20;93.20
19829;DHT22;10075;50.924;4.396;2023-07-02T11:28:49;24.20;93.00
19829;DHT22;10075;50.924;4.396;2023-07-02T11:31:26;24.20;93.10
19829;DHT22;10075;50.924;4.396;2023-07-02T11:33:53;24.20;92.00
19829;DHT22;10075;50.924;4.396;2023-07-02T11:36:22;24.50;92.70
19829;DHT22;10075;50.924;4.396;2023-07-02T11:38:50;24.80;92.90
19829;DHT22;10075;50.924;4.396;2023-07-02T11:41:19;25.20;92.70
19829;DHT22;10075;50.924;4.396;2023-07-02T11:43:46;25.40;91.90
19829;DHT22;10075;50.924;4.396;2023-07-02T11:46:14;25.40;90.50
19829;DHT22;10075;50.924;4.396;2023-07-02T11:48:43;25.30;90.00
19829;DHT22;10075;50.924;4.396;2023-07-02T11:51:10;25.20;91.00
19829;DHT22;10075;50.924;4.396;2023-07-02T11:53:37;25.10;91.00
19829;DHT22;10075;50.924;4.396;2023-07-02T11:56:04;25.20;90.70
19829;DHT22;10075;50.924;4.396;2023-07-02T11:58:31;25.20;90.80
19829;DHT22;10075;50.924;4.396;2023-07-02T12:00:58;25.20;90.30
19829;DHT22;10075;50.924;4.396;2023-07-02T12:03:25;25.10;90.60
19829;DHT22;10075;50.924;4.396;2023-07-02T12:05:54;25.10;90.50
19829;DHT22;10075;50.924;4.396;2023-07-02T12:08:21;25.00;91.10
19829;DHT22;10075;50.924;4.396;2023-07-02T12:10:47;25.00;90.60
19829;DHT22;10075;50.924;4.396;2023-07-02T12:13:14;25.20;91.40
19829;DHT22;10075;50.924;4.396;2023-07-02T12:15:42;25.50;90.30
19829;DHT22;10075;50.924;4.396;2023-07-02T12:18:09;25.60;88.70
19829;DHT22;10075;50.924;4.396;2023-07-02T12:20:36;25.70;90.30
19829;DHT22;10075;50.924;4.396;2023-07-02T12:23:05;25.70;90.00
19829;DHT22;10075;50.924;4.396;2023-07-02T12:25:32;25.70;90.60
19829;DHT22;10075;50.924;4.396;2023-07-02T12:27:59;25.50;90.10
19829;DHT22;10075;50.924;4.396;2023-07-02T12:30:26;25.40;90.60
19829;DHT22;10075;50.924;4.396;2023-07-02T12:32:53;25.40;90.30
19829;DHT22;10075;50.924;4.396;2023-07-02T12:35:20;25.50;90.90
19829;DHT22;10075;50.924;4.396;2023-07-02T12:37:49;25.70;90.10
19829;DHT22;10075;50.924;4.396;2023-07-02T12:40:18;25.80;89.20
19829;DHT22;10075;50.924;4.396;2023-07-02T12:42:46;25.80;89.30
19829;DHT22;10075;50.924;4.396;2023-07-02T12:45:14;25.70;89.00
19829;DHT22;10075;50.924;4.396;2023-07-02T12:47:41;25.60;90.20
19829;DHT22;10075;50.924;4.396;2023-07-02T12:50:10;25.50;88.40
19829;DHT22;10075;50.924;4.396;2023-07-02T12:52:37;25.40;89.10
19829;DHT22;10075;50.924;4.396;2023-07-02T12:55:05;25.30;89.00
19829;DHT22;10075;50.924;4.396;2023-07-02T12:57:34;25.30;88.20
19829;DHT22;10075;50.924;4.396;2023-07-02T13:00:01;25.30;87.80
19829;DHT22;10075;50.924;4.396;2023-07-02T13:02:31;25.40;87.70
19829;DHT22;10075;50.924;4.396;2023-07-02T13:04:58;25.40;89.50
19829;DHT22;10075;50.924;4.396;2023-07-02T13:07:25;25.40;88.90
19829;DHT22;10075;50.924;4.396;2023-07-02T13:09:53;25.30;87.60
19829;DHT22;10075;50.924;4.396;2023-07-02T13:12:20;25.30;89.60
19829;DHT22;10075;50.924;4.396;2023-07-02T13:14:48;25.50;87.50
19829;DHT22;10075;50.924;4.396;2023-07-02T13:17:15;25.70;89.70
19829;DHT22;10075;50.924;4.396;2023-07-02T13:19:42;26.00;86.50
19829;DHT22;10075;50.924;4.396;2023-07-02T13:22:09;26.10;86.00
19829;DHT22;10075;50.924;4.396;2023-07-02T13:24:37;26.20;87.20
19829;DHT22;10075;50.924;4.396;2023-07-02T13:27:09;26.30;84.20
19829;DHT22;10075;50.924;4.396;2023-07-02T13:29:37;26.20;83.90
19829;DHT22;10075;50.924;4.396;2023-07-02T13:32:07;26.10;86.00
19829;DHT22;10075;50.924;4.396;2023-07-02T13:34:34;26.00;85.40
19829;DHT22;10075;50.924;4.396;2023-07-02T13:37:01;26.10;86.50
19829;DHT22;10075;50.924;4.396;2023-07-02T13:39:29;26.20;85.60
19829;DHT22;10075;50.924;4.396;2023-07-02T13:41:56;26.30;84.00
19829;DHT22;10075;50.924;4.396;2023-07-02T13:44:23;26.40;84.20
19829;DHT22;10075;50.924;4.396;2023-07-02T13:46:50;26.60;85.00
19829;DHT22;10075;50.924;4.396;2023-07-02T13:49:18;26.70;85.30
19829;DHT22;10075;50.924;4.396;2023-07-02T13:51:45;26.90;83.60
19829;DHT22;10075;50.924;4.396;2023-07-02T13:54:12;26.80;83.20
19829;DHT22;10075;50.924;4.396;2023-07-02T13:56:40;26.70;84.80
19829;DHT22;10075;50.924;4.396;2023-07-02T13:59:08;26.70;84.70
19829;DHT22;10075;50.924;4.396;2023-07-02T14:01:35;26.70;84.80
19829;DHT22;10075;50.924;4.396;2023-07-02T14:04:02;26.70;84.00
19829;DHT22;10075;50.924;4.396;2023-07-02T14:06:30;26.80;85.20
19829;DHT22;10075;50.924;4.396;2023-07-02T14:08:57;26.90;83.00
19829;DHT22;10075;50.924;4.396;2023-07-02T14:11:25;26.90;82.20
19829;DHT22;10075;50.924;4.396;2023-07-02T14:13:53;26.80;81.90
19829;DHT22;10075;50.924;4.396;2023-07-02T14:16:21;26.70;82.60
19829;DHT22;10075;50.924;4.396;2023-07-02T14:18:49;26.70;82.90
19829;DHT22;10075;50.924;4.396;2023-07-02T14:21:16;26.80;80.60
19829;DHT22;10075;50.924;4.396;2023-07-02T14:23:44;27.00;81.30
19829;DHT22;10075;50.924;4.396;2023-07-02T14:26:11;27.90;80.60
19829;DHT22;10075;50.924;4.396;2023-07-02T14:28:38;29.10;77.20
19829;DHT22;10075;50.924;4.396;2023-07-02T14:31:06;29.60;73.60
19829;DHT22;10075;50.924;4.396;2023-07-02T14:33:36;29.20;74.20
19829;DHT22;10075;50.924;4.396;2023-07-02T14:36:04;29.10;75.20
19829;DHT22;10075;50.924;4.396;2023-07-02T14:38:31;29.90;75.00
19829;DHT22;10075;50.924;4.396;2023-07-02T14:40:59;30.70;70.70
19829;DHT22;10075;50.924;4.396;2023-07-02T14:43:28;31.70;71.50
19829;DHT22;10075;50.924;4.396;2023-07-02T14:45:56;32.40;66.90
19829;DHT22;10075;50.924;4.396;2023-07-02T14:48:23;31.80;66.90
19829;DHT22;10075;50.924;4.396;2023-07-02T14:50:53;30.90;67.60
19829;DHT22;10075;50.924;4.396;2023-07-02T14:53:21;30.00;68.60
19829;DHT22;10075;50.924;4.396;2023-07-02T14:55:48;29.70;71.60
19829;DHT22;10075;50.924;4.396;2023-07-02T14:58:16;30.50;69.60
19829;DHT22;10075;50.924;4.396;2023-07-02T15:00:45;32.50;68.00
19829;DHT22;10075;50.924;4.396;2023-07-02T15:03:14;32.80;64.40
19829;DHT22;10075;50.924;4.396;2023-07-02T15:05:41;32.20;63.60
19829;DHT22;10075;50.924;4.396;2023-07-02T15:08:10;31.30;65.40
19829;DHT22;10075;50.924;4.396;2023-07-02T15:10:39;31.00;66.60
19829;DHT22;10075;50.924;4.396;2023-07-02T15:13:07;31.40;66.70
19829;DHT22;10075;50.924;4.396;2023-07-02T15:15:34;33.00;63.10
19829;DHT22;10075;50.924;4.396;2023-07-02T15:18:02;33.60;60.50
19829;DHT22;10075;50.924;4.396;2023-07-02T15:20:29;32.90;60.40
19829;DHT22;10075;50.924;4.396;2023-07-02T15:22:56;32.70;62.00
19829;DHT22;10075;50.924;4.396;2023-07-02T15:25:24;32.00;62.00
19829;DHT22;10075;50.924;4.396;2023-07-02T15:27:52;32.70;63.70
19829;DHT22;10075;50.924;4.396;2023-07-02T15:30:19;34.20;59.50
19829;DHT22;10075;50.924;4.396;2023-07-02T15:32:46;35.30;57.20
19829;DHT22;10075;50.924;4.396;2023-07-02T15:35:13;34.90;57.60